Cissna Park, Illinois
Current Conditions -  °F | °C
As of 3:10 AM on Friday 31 Oct 2014 (Local Time) from KTIP Reporting Station
Overcast Overcast  
Wind Chill: 41°   Ceiling: 5000
Heat Index: 46°   Visibility: 10mi
Dew Point: 42°   Wind: 8mph
Humidity: 86%   Direction: 310°NW
Pressure: 30.04"   Gusts: NA
Location:  40.56°N, 87.89°W
Report Text: KTIP 310810Z AUTO 31007KT 10SM OVC050 08/05 A3004 RMK AO2 T00750053
Loading
Personal Weather Stations






























Interactive Weather Map
Tropical Storm Tracking
New forecast layout! Learn more

10-Day Weather Forecast

Advertisements
Track Severe Weather on mobile